Webcam Flughafen St.Gallen-Altenrhein

Live-Bilder und Zeitraffer LSZR / ACH.

 

Live aus Altenrhein
LIVE
LSZR 051520Z AUTO 28006KT CAVOK 17/03 Q1019
Zeitraffer heute
2020-04-05 00:14:28
LSZR 042150Z AUTO VRB01KT CAVOK 04/01 Q1022